Time;durP1;ratioP1;P1;durP2;ratioP2;P2;SDS_P1;SDS_P2;PMS_P1;PMS_P2;Temp;Humidity;BMP_temperature;BMP_pressure;BME280_temperature;BME280_humidity;BME280_pressure;Samples;Min_cycle;Max_cycle;Signal;HPM_P1;HPM_P2
2021/08/10 00:00:03;;;;;;;9.20;7.40;;;;;;;;;;5009769;28;20061;-64
2021/08/10 00:02:56;;;;;;;10.18;6.88;;;;;;;;;;4995406;28;20057;-64
2021/08/10 00:05:47;;;;;;;10.65;6.82;;;;;;;;;;4994901;28;20489;-64
2021/08/10 00:08:32;;;;;;;12.30;7.70;;;;;;;;;;4995722;28;20038;-64
2021/08/10 00:11:18;;;;;;;10.77;7.43;;;;;;;;;;5014713;28;20131;-64
2021/08/10 00:14:03;;;;;;;11.18;7.15;;;;;;;;;;5011233;28;20046;-64
2021/08/10 00:16:49;;;;;;;10.98;7.53;;;;;;;;;;5014706;28;20046;-64
2021/08/10 00:19:34;;;;;;;9.50;7.70;;;;;;;;;;5011305;28;20046;-64
2021/08/10 00:22:20;;;;;;;11.70;7.35;;;;;;;;;;5014495;28;20185;-64
2021/08/10 00:25:05;;;;;;;13.68;8.38;;;;;;;;;;5014229;28;20068;-64
2021/08/10 00:27:51;;;;;;;11.52;8.98;;;;;;;;;;5014399;28;20517;-64
2021/08/10 00:30:39;;;;;;;14.27;9.40;;;;;;;;;;5012796;28;20451;-64
2021/08/10 00:33:25;;;;;;;13.68;9.77;;;;;;;;;;5013418;28;20050;-64
2021/08/10 00:36:12;;;;;;;12.98;9.90;;;;;;;;;;5013419;28;20057;-64
2021/08/10 00:38:58;;;;;;;16.52;10.55;;;;;;;;;;5011562;28;20056;-64
2021/08/10 00:41:43;;;;;;;13.45;10.25;;;;;;;;;;5014229;28;20077;-64
2021/08/10 00:44:28;;;;;;;15.10;9.75;;;;;;;;;;5012923;28;20404;-64
2021/08/10 00:47:14;;;;;;;14.00;10.23;;;;;;;;;;5013158;28;20060;-64
2021/08/10 00:50:01;;;;;;;17.08;11.45;;;;;;;;;;5009779;28;20065;-64
2021/08/10 00:52:46;;;;;;;13.23;10.30;;;;;;;;;;5012522;28;20050;-64
2021/08/10 00:55:33;;;;;;;14.73;10.50;;;;;;;;;;5012686;28;20053;-64
2021/08/10 00:58:19;;;;;;;15.43;10.20;;;;;;;;;;5012750;28;20196;-64
2021/08/10 01:01:04;;;;;;;15.45;9.93;;;;;;;;;;5010924;28;20066;-64
2021/08/10 01:03:49;;;;;;;12.27;8.93;;;;;;;;;;5012498;28;20046;-64
2021/08/10 01:06:40;;;;;;;15.30;10.57;;;;;;;;;;5013622;28;20135;-64
2021/08/10 01:09:38;;;;;;;15.00;11.82;;;;;;;;;;5010567;28;20061;-64
2021/08/10 01:12:27;;;;;;;17.17;11.70;;;;;;;;;;4987376;28;20057;-64
2021/08/10 01:15:15;;;;;;;14.10;11.05;;;;;;;;;;4960159;28;20057;-64
2021/08/10 01:18:05;;;;;;;14.48;11.30;;;;;;;;;;4960044;28;20043;-64
2021/08/10 01:21:05;;;;;;;14.57;11.45;;;;;;;;;;4988171;28;20133;-64
2021/08/10 01:23:54;;;;;;;17.35;11.60;;;;;;;;;;5026138;28;20484;-64
2021/08/10 01:26:54;;;;;;;12.55;11.00;;;;;;;;;;4998612;28;20046;-64
2021/08/10 01:29:41;;;;;;;15.95;10.88;;;;;;;;;;5012401;28;20524;-64
2021/08/10 01:32:29;;;;;;;16.05;11.52;;;;;;;;;;5010279;28;20057;-64
2021/08/10 01:35:19;;;;;;;13.95;10.68;;;;;;;;;;4998563;28;20129;-64
2021/08/10 01:38:04;;;;;;;15.68;11.13;;;;;;;;;;5012380;28;20065;-64
2021/08/10 01:40:50;;;;;;;14.02;10.73;;;;;;;;;;4996467;28;20061;-64
2021/08/10 01:43:36;;;;;;;15.43;10.75;;;;;;;;;;4998150;28;20463;-64
2021/08/10 01:46:24;;;;;;;17.05;10.70;;;;;;;;;;4998215;28;20156;-64
2021/08/10 01:49:12;;;;;;;17.70;9.73;;;;;;;;;;4998556;28;20053;-64
2021/08/10 01:51:59;;;;;;;12.73;9.48;;;;;;;;;;5010048;28;20053;-64
2021/08/10 01:54:44;;;;;;;14.73;9.50;;;;;;;;;;4999424;28;20413;-65
2021/08/10 01:57:29;;;;;;;13.20;9.90;;;;;;;;;;4992334;28;20050;-64
2021/08/10 02:00:15;;;;;;;14.27;10.02;;;;;;;;;;4992370;28;20069;-64
2021/08/10 02:03:00;;;;;;;12.90;9.20;;;;;;;;;;5005141;28;20042;-65
2021/08/10 02:05:55;;;;;;;9.05;8.07;;;;;;;;;;4998787;28;20501;-64
2021/08/10 02:08:48;;;;;;;19.88;9.93;;;;;;;;;;4959883;28;20132;-64
2021/08/10 02:11:34;;;;;;;13.02;9.05;;;;;;;;;;4959401;28;20054;-64
2021/08/10 02:14:25;;;;;;;10.88;7.93;;;;;;;;;;5014144;28;20515;-64
2021/08/10 02:17:14;;;;;;;11.15;8.10;;;;;;;;;;5005750;28;20054;-64
2021/08/10 02:20:06;;;;;;;13.00;8.55;;;;;;;;;;4991717;28;20177;-64
2021/08/10 02:22:52;;;;;;;9.95;8.10;;;;;;;;;;4984364;28;20050;-64
2021/08/10 02:25:38;;;;;;;11.57;8.23;;;;;;;;;;4985980;28;20049;-64
2021/08/10 02:28:27;;;;;;;12.43;8.73;;;;;;;;;;4978536;28;20555;-64
2021/08/10 02:31:12;;;;;;;13.20;8.40;;;;;;;;;;4992659;28;20496;-64
2021/08/10 02:33:59;;;;;;;13.50;7.90;;;;;;;;;;5003088;28;20050;-64
2021/08/10 02:36:47;;;;;;;11.88;8.13;;;;;;;;;;5011398;28;20056;-65
2021/08/10 02:39:33;;;;;;;13.20;8.40;;;;;;;;;;4997626;28;20058;-64
2021/08/10 02:42:18;;;;;;;11.90;8.38;;;;;;;;;;4997417;28;20061;-64
2021/08/10 02:45:05;;;;;;;12.27;8.65;;;;;;;;;;4994941;28;20084;-65
2021/08/10 02:47:50;;;;;;;13.05;7.97;;;;;;;;;;5012174;28;20088;-64
2021/08/10 02:50:38;;;;;;;13.65;8.73;;;;;;;;;;5011010;28;20519;-65
2021/08/10 02:53:23;;;;;;;13.07;8.45;;;;;;;;;;5009049;28;20043;-63
2021/08/10 02:56:21;;;;;;;13.35;8.70;;;;;;;;;;5011525;28;20053;-64
2021/08/10 02:59:07;;;;;;;13.88;9.63;;;;;;;;;;4974068;28;20050;-64
2021/08/10 03:02:12;;;;;;;17.55;10.32;;;;;;;;;;4991451;28;20038;-64
2021/08/10 03:04:59;;;;;;;13.73;9.60;;;;;;;;;;5003127;28;20412;-65
2021/08/10 03:07:46;;;;;;;13.27;9.70;;;;;;;;;;4997165;28;20172;-65
2021/08/10 03:10:33;;;;;;;16.90;10.30;;;;;;;;;;5004682;28;20390;-64
2021/08/10 03:13:19;;;;;;;12.98;9.68;;;;;;;;;;4990013;28;20046;-64
2021/08/10 03:16:06;;;;;;;18.30;10.18;;;;;;;;;;5011060;28;20049;-64
2021/08/10 03:18:52;;;;;;;14.57;9.05;;;;;;;;;;5000947;28;20049;-64
2021/08/10 03:21:38;;;;;;;16.50;10.23;;;;;;;;;;5001098;28;20424;-64
2021/08/10 03:24:25;;;;;;;13.65;9.40;;;;;;;;;;5012793;28;20104;-64
2021/08/10 03:27:10;;;;;;;14.30;10.30;;;;;;;;;;5000972;28;20053;-64
2021/08/10 03:29:55;;;;;;;14.45;10.50;;;;;;;;;;5000676;28;20053;-64
2021/08/10 03:32:41;;;;;;;13.20;10.90;;;;;;;;;;5014722;28;20060;-64
2021/08/10 03:35:26;;;;;;;15.93;10.57;;;;;;;;;;5012028;28;20058;-64
2021/08/10 03:38:13;;;;;;;14.60;11.10;;;;;;;;;;5000783;28;20435;-64
2021/08/10 03:40:58;;;;;;;15.65;10.25;;;;;;;;;;5015578;28;20049;-64
2021/08/10 03:43:44;;;;;;;14.15;10.60;;;;;;;;;;5000457;28;20046;-64
2021/08/10 03:46:30;;;;;;;11.70;9.82;;;;;;;;;;4997203;28;20046;-64
2021/08/10 03:49:17;;;;;;;18.13;10.45;;;;;;;;;;5012690;28;20042;-63
2021/08/10 03:52:03;;;;;;;12.55;9.85;;;;;;;;;;4975194;28;20418;-64
2021/08/10 03:54:49;;;;;;;14.02;9.55;;;;;;;;;;4974848;28;20109;-64
2021/08/10 03:57:35;;;;;;;15.10;9.05;;;;;;;;;;4998680;28;20046;-64
2021/08/10 04:00:21;;;;;;;11.88;8.55;;;;;;;;;;5015020;28;20448;-64
2021/08/10 04:03:13;;;;;;;13.45;9.32;;;;;;;;;;5001184;28;20053;-64
2021/08/10 04:06:00;;;;;;;13.52;9.25;;;;;;;;;;5026400;28;20122;-64
2021/08/10 04:08:47;;;;;;;10.43;9.05;;;;;;;;;;5013882;28;20046;-64
2021/08/10 04:11:36;;;;;;;12.75;9.25;;;;;;;;;;5013895;28;20050;-64
2021/08/10 04:14:26;;;;;;;12.57;8.65;;;;;;;;;;4998855;28;20108;-64
2021/08/10 04:17:11;;;;;;;16.65;10.93;;;;;;;;;;5013698;28;20058;-65
2021/08/10 04:19:59;;;;;;;15.85;9.32;;;;;;;;;;5014477;28;20459;-64
2021/08/10 04:22:45;;;;;;;16.02;11.05;;;;;;;;;;5013833;28;20052;-64
2021/08/10 04:25:35;;;;;;;15.70;10.68;;;;;;;;;;5011357;28;20551;-64
2021/08/10 04:28:21;;;;;;;14.13;10.55;;;;;;;;;;5013359;28;20046;-65
2021/08/10 04:31:07;;;;;;;18.70;9.77;;;;;;;;;;5012580;28;20050;-64
2021/08/10 04:33:53;;;;;;;13.35;10.55;;;;;;;;;;5013209;28;20084;-65
2021/08/10 04:36:41;;;;;;;15.25;12.73;;;;;;;;;;5010437;28;20057;-63
2021/08/10 04:39:26;;;;;;;16.05;12.57;;;;;;;;;;5014323;28;20076;-64
2021/08/10 04:42:14;;;;;;;17.00;13.30;;;;;;;;;;5027148;28;20508;-64
2021/08/10 04:44:59;;;;;;;20.77;13.63;;;;;;;;;;5013917;28;20049;-64
2021/08/10 04:47:45;;;;;;;20.08;13.68;;;;;;;;;;5011275;28;20077;-64
2021/08/10 04:50:30;;;;;;;20.67;14.52;;;;;;;;;;5013051;28;20520;-64
2021/08/10 04:53:16;;;;;;;19.02;14.13;;;;;;;;;;5013125;28;20131;-64
2021/08/10 04:56:02;;;;;;;20.58;13.77;;;;;;;;;;5012439;28;20080;-64
2021/08/10 04:58:48;;;;;;;18.85;13.60;;;;;;;;;;5012851;28;20049;-64
2021/08/10 05:01:34;;;;;;;18.17;13.70;;;;;;;;;;5007340;28;20053;-64
2021/08/10 05:04:22;;;;;;;18.70;13.65;;;;;;;;;;4992579;28;20053;-64
2021/08/10 05:07:07;;;;;;;19.15;13.25;;;;;;;;;;5007768;28;20045;-64
2021/08/10 05:09:52;;;;;;;19.00;13.80;;;;;;;;;;5006946;28;20057;-65
2021/08/10 05:12:38;;;;;;;19.48;13.93;;;;;;;;;;5007079;28;20111;-64
2021/08/10 05:15:27;;;;;;;20.10;13.80;;;;;;;;;;5006683;28;20116;-64
2021/08/10 05:18:13;;;;;;;19.17;14.20;;;;;;;;;;5005621;28;20449;-64
2021/08/10 05:21:00;;;;;;;18.08;13.13;;;;;;;;;;5012671;28;20124;-64
2021/08/10 05:23:48;;;;;;;19.17;13.25;;;;;;;;;;5012212;28;20104;-64
2021/08/10 05:26:33;;;;;;;19.15;13.57;;;;;;;;;;5012373;28;20124;-64
2021/08/10 05:29:19;;;;;;;19.75;12.82;;;;;;;;;;5012875;28;20037;-64
2021/08/10 05:32:05;;;;;;;18.20;13.32;;;;;;;;;;5013377;28;20049;-64
2021/08/10 05:34:50;;;;;;;15.63;13.05;;;;;;;;;;5025922;28;20092;-64
2021/08/10 05:37:37;;;;;;;20.13;13.02;;;;;;;;;;5010294;28;20046;-65
2021/08/10 05:40:22;;;;;;;18.00;12.77;;;;;;;;;;5012297;28;20054;-64
2021/08/10 05:43:09;;;;;;;16.23;12.63;;;;;;;;;;5012200;28;20513;-65
2021/08/10 05:45:55;;;;;;;17.27;12.70;;;;;;;;;;5012199;28;20053;-64
2021/08/10 05:48:40;;;;;;;16.90;13.23;;;;;;;;;;5009188;28;20136;-64
2021/08/10 05:51:28;;;;;;;19.15;13.60;;;;;;;;;;5012005;28;20046;-64
2021/08/10 05:54:13;;;;;;;17.50;12.52;;;;;;;;;;5012768;28;20050;-64
2021/08/10 05:57:03;;;;;;;15.38;12.52;;;;;;;;;;5025939;28;20127;-64
2021/08/10 05:59:48;;;;;;;19.25;12.02;;;;;;;;;;5010571;28;20096;-66
2021/08/10 06:02:36;;;;;;;17.67;12.60;;;;;;;;;;5009720;28;20089;-64
2021/08/10 06:05:22;;;;;;;17.40;13.55;;;;;;;;;;4997954;28;20041;-64
2021/08/10 06:08:07;;;;;;;17.58;13.40;;;;;;;;;;5011656;28;20115;-64
2021/08/10 06:10:59;;;;;;;19.13;13.38;;;;;;;;;;4972693;28;20278;-64
2021/08/10 06:13:45;;;;;;;15.70;12.15;;;;;;;;;;4986156;28;20057;-64
2021/08/10 06:16:30;;;;;;;16.75;13.15;;;;;;;;;;4973649;28;20061;-64
2021/08/10 06:19:21;;;;;;;15.48;12.60;;;;;;;;;;4983899;28;20121;-64
2021/08/10 06:22:08;;;;;;;15.18;11.95;;;;;;;;;;5008454;28;20058;-64
2021/08/10 06:24:54;;;;;;;15.60;12.52;;;;;;;;;;5011175;28;20046;-64
2021/08/10 06:27:43;;;;;;;15.50;10.73;;;;;;;;;;5011282;28;20120;-64
2021/08/10 06:30:28;;;;;;;11.10;9.95;;;;;;;;;;5007830;28;20049;-64
2021/08/10 06:33:13;;;;;;;11.75;10.07;;;;;;;;;;5012361;28;20082;-64
2021/08/10 06:36:02;;;;;;;11.25;9.63;;;;;;;;;;5010670;28;20159;-64
2021/08/10 06:38:50;;;;;;;14.90;9.90;;;;;;;;;;4992491;28;20046;-64
2021/08/10 06:41:36;;;;;;;12.25;8.00;;;;;;;;;;5005518;28;20120;-63
2021/08/10 06:44:24;;;;;;;11.50;9.57;;;;;;;;;;5005455;28;20066;-63
2021/08/10 06:47:15;;;;;;;9.82;8.60;;;;;;;;;;5015085;28;20176;-64
2021/08/10 06:50:00;;;;;;;9.93;8.40;;;;;;;;;;5005743;28;20046;-64
2021/08/10 06:52:47;;;;;;;10.45;8.60;;;;;;;;;;5009852;28;20058;-63
2021/08/10 06:55:36;;;;;;;10.65;8.40;;;;;;;;;;5010309;28;20046;-64
2021/08/10 06:58:26;;;;;;;10.70;9.55;;;;;;;;;;5015032;28;20046;-64
2021/08/10 07:01:11;;;;;;;12.00;9.65;;;;;;;;;;5009819;28;20054;-64
2021/08/10 07:03:59;;;;;;;12.40;10.63;;;;;;;;;;5014861;28;20137;-64
2021/08/10 07:06:45;;;;;;;11.98;9.48;;;;;;;;;;5012590;28;20053;-64
2021/08/10 07:09:30;;;;;;;12.48;11.15;;;;;;;;;;5012248;28;20056;-64
2021/08/10 07:12:16;;;;;;;12.57;10.85;;;;;;;;;;5015021;28;20057;-64
2021/08/10 07:15:05;;;;;;;12.57;10.77;;;;;;;;;;5014549;28;20408;-64
2021/08/10 07:17:50;;;;;;;13.90;11.25;;;;;;;;;;5011329;28;20050;-64
2021/08/10 07:20:42;;;;;;;12.68;10.93;;;;;;;;;;5010037;28;21733;-64
2021/08/10 07:23:28;;;;;;;13.15;11.85;;;;;;;;;;5000168;28;20049;-64
2021/08/10 07:26:14;;;;;;;13.77;10.43;;;;;;;;;;5014699;28;20073;-64
2021/08/10 07:29:01;;;;;;;12.98;11.68;;;;;;;;;;5014632;28;20441;-64
2021/08/10 07:31:48;;;;;;;14.48;11.82;;;;;;;;;;5012839;28;20042;-64
2021/08/10 07:34:39;;;;;;;14.40;13.00;;;;;;;;;;5014258;28;20053;-64
2021/08/10 07:37:25;;;;;;;16.02;14.27;;;;;;;;;;5014455;28;20052;-64
2021/08/10 07:40:12;;;;;;;18.33;13.57;;;;;;;;;;4995735;28;20050;-63
2021/08/10 07:42:58;;;;;;;17.80;15.32;;;;;;;;;;5014438;28;20057;-64
2021/08/10 07:45:44;;;;;;;18.45;16.35;;;;;;;;;;5015833;28;20045;-64
2021/08/10 07:48:33;;;;;;;21.50;17.42;;;;;;;;;;5006406;28;20050;-65
2021/08/10 07:51:19;;;;;;;21.55;17.45;;;;;;;;;;4994615;28;20050;-64
2021/08/10 07:54:04;;;;;;;23.80;17.13;;;;;;;;;;4974803;28;20046;-64
2021/08/10 07:56:50;;;;;;;17.42;15.43;;;;;;;;;;4975042;28;20058;-64
2021/08/10 07:59:35;;;;;;;20.02;14.68;;;;;;;;;;4975840;28;20417;-64
2021/08/10 08:02:20;;;;;;;17.17;15.48;;;;;;;;;;5010491;28;20056;-64
2021/08/10 08:05:06;;;;;;;19.67;17.48;;;;;;;;;;5013727;28;20099;-64
2021/08/10 08:07:52;;;;;;;22.58;17.08;;;;;;;;;;5013940;28;20053;-64
2021/08/10 08:10:37;;;;;;;21.20;17.20;;;;;;;;;;5012150;28;20045;-64
2021/08/10 08:13:24;;;;;;;19.60;16.35;;;;;;;;;;5014829;28;20052;-64
2021/08/10 08:16:09;;;;;;;20.73;15.93;;;;;;;;;;5027887;28;20052;-64
2021/08/10 08:18:54;;;;;;;20.00;15.23;;;;;;;;;;5027467;28;20049;-64
2021/08/10 08:21:42;;;;;;;16.42;13.90;;;;;;;;;;5012092;28;20100;-64
2021/08/10 08:24:27;;;;;;;20.35;14.10;;;;;;;;;;5013489;28;20053;-64
2021/08/10 08:27:14;;;;;;;20.38;14.55;;;;;;;;;;5013555;28;20057;-65
2021/08/10 08:30:00;;;;;;;21.77;13.50;;;;;;;;;;5013482;28;20050;-64
2021/08/10 08:32:46;;;;;;;21.08;15.23;;;;;;;;;;5010997;28;20053;-65
2021/08/10 08:35:32;;;;;;;19.83;14.27;;;;;;;;;;4990202;28;20456;-64
2021/08/10 08:38:19;;;;;;;18.88;12.68;;;;;;;;;;4982716;28;20516;-64
2021/08/10 08:41:05;;;;;;;19.67;12.10;;;;;;;;;;5007554;28;20050;-64
2021/08/10 08:43:51;;;;;;;17.02;11.55;;;;;;;;;;5014022;28;20042;-64
2021/08/10 08:46:37;;;;;;;19.30;13.18;;;;;;;;;;4993038;28;20117;-64
2021/08/10 08:49:23;;;;;;;15.40;11.10;;;;;;;;;;4978747;28;20201;-65
2021/08/10 08:52:12;;;;;;;15.82;10.45;;;;;;;;;;4988472;28;20124;-65
2021/08/10 08:54:59;;;;;;;13.82;10.45;;;;;;;;;;5005069;28;20042;-64
2021/08/10 08:57:45;;;;;;;13.27;10.02;;;;;;;;;;5013994;28;20116;-65
2021/08/10 09:00:30;;;;;;;20.30;10.65;;;;;;;;;;4987822;28;20050;-65
2021/08/10 09:03:15;;;;;;;13.68;8.85;;;;;;;;;;5002362;28;20092;-65
2021/08/10 09:06:00;;;;;;;12.55;7.47;;;;;;;;;;4999497;28;20054;-64
2021/08/10 09:08:47;;;;;;;14.85;8.85;;;;;;;;;;4984827;28;20050;-64
2021/08/10 09:11:37;;;;;;;12.40;9.20;;;;;;;;;;4978067;28;20124;-64
2021/08/10 09:14:23;;;;;;;15.43;10.48;;;;;;;;;;4989920;28;20146;-64
2021/08/10 09:17:09;;;;;;;18.42;10.32;;;;;;;;;;4990166;28;20055;-64
2021/08/10 09:20:03;;;;;;;17.73;9.63;;;;;;;;;;5020455;28;20193;-63
2021/08/10 09:22:56;;;;;;;12.90;10.32;;;;;;;;;;5021646;28;20054;-63
2021/08/10 09:25:58;;;;;;;7.22;6.07;;;;;;;;;;5012298;28;20179;-63
2021/08/10 09:28:44;;;;;;;9.75;6.93;;;;;;;;;;5013025;28;20053;-63
2021/08/10 09:31:42;;;;;;;12.45;6.43;;;;;;;;;;5012069;28;20042;-63
2021/08/10 09:34:30;;;;;;;16.05;7.13;;;;;;;;;;5011093;28;20049;-63
2021/08/10 09:37:20;;;;;;;12.70;7.63;;;;;;;;;;5012197;28;20139;-63
2021/08/10 09:40:24;;;;;;;11.57;6.38;;;;;;;;;;5008063;28;20042;-63
2021/08/10 09:43:24;;;;;;;8.25;4.80;;;;;;;;;;5005890;28;20043;-62
2021/08/10 09:46:12;;;;;;;10.90;5.75;;;;;;;;;;5007349;28;20120;-62
2021/08/10 09:48:57;;;;;;;9.80;6.63;;;;;;;;;;5012772;28;20053;-62
2021/08/10 09:51:50;;;;;;;7.35;5.68;;;;;;;;;;5002950;28;20054;-63
2021/08/10 09:54:36;;;;;;;9.57;6.78;;;;;;;;;;5012135;28;20042;-63
2021/08/10 09:57:21;;;;;;;10.15;6.90;;;;;;;;;;5010862;23;20047;-61
2021/08/10 10:00:06;;;;;;;10.60;6.32;;;;;;;;;;4971590;28;20050;-61
2021/08/10 10:03:15;;;;;;;10.70;7.77;;;;;;;;;;4954276;28;20055;-60
2021/08/10 10:06:01;;;;;;;13.38;8.82;;;;;;;;;;4997479;28;20042;-61
2021/08/10 10:08:49;;;;;;;13.10;8.35;;;;;;;;;;4986530;28;20141;-61
2021/08/10 10:11:35;;;;;;;10.95;7.80;;;;;;;;;;4986353;28;20125;-61
2021/08/10 10:14:21;;;;;;;11.40;6.80;;;;;;;;;;4985326;28;20523;-61
2021/08/10 10:17:08;;;;;;;9.82;7.28;;;;;;;;;;4966902;28;20584;-61
2021/08/10 10:19:54;;;;;;;18.50;9.68;;;;;;;;;;4953843;28;20043;-61
2021/08/10 10:22:39;;;;;;;28.95;14.68;;;;;;;;;;4952543;29;20508;-60
2021/08/10 10:25:25;;;;;;;19.58;9.95;;;;;;;;;;4952693;28;20054;-60
2021/08/10 10:28:10;;;;;;;13.40;9.43;;;;;;;;;;4972268;28;20057;-60
2021/08/10 10:30:55;;;;;;;17.35;12.35;;;;;;;;;;4973131;28;20061;-60
2021/08/10 10:33:40;;;;;;;11.30;10.10;;;;;;;;;;4972155;28;20054;-60
2021/08/10 10:36:26;;;;;;;13.93;9.07;;;;;;;;;;4968946;28;20117;-60
2021/08/10 10:39:11;;;;;;;13.13;7.80;;;;;;;;;;4973141;28;20049;-62
2021/08/10 10:41:58;;;;;;;12.00;9.00;;;;;;;;;;4973270;28;20051;-62
2021/08/10 10:44:51;;;;;;;12.65;7.70;;;;;;;;;;4971322;28;20051;-62
2021/08/10 10:47:41;;;;;;;14.95;9.95;;;;;;;;;;4969001;28;20563;-62
2021/08/10 10:50:26;;;;;;;16.73;10.77;;;;;;;;;;4973067;28;20053;-62
2021/08/10 10:53:11;;;;;;;13.68;9.57;;;;;;;;;;4972159;28;20043;-62
2021/08/10 10:55:57;;;;;;;19.17;12.38;;;;;;;;;;4971099;28;20122;-62
2021/08/10 10:58:43;;;;;;;19.58;11.15;;;;;;;;;;4953711;28;20183;-62
2021/08/10 11:01:29;;;;;;;12.68;10.90;;;;;;;;;;4953930;28;20066;-62
2021/08/10 11:04:15;;;;;;;16.65;11.15;;;;;;;;;;4953394;28;20556;-62
2021/08/10 11:07:00;;;;;;;20.02;11.00;;;;;;;;;;4953318;28;20056;-62
2021/08/10 11:09:48;;;;;;;14.18;10.80;;;;;;;;;;4953823;28;20070;-62
2021/08/10 11:12:46;;;;;;;16.98;11.51;;;;;;;;;;4946928;28;10000887;-62
2021/08/10 11:15:47;;;;;;;17.25;11.55;;;;;;;;;;4944203;29;20744;-62
2021/08/10 11:18:33;;;;;;;14.95;10.00;;;;;;;;;;4934363;29;20148;-62
2021/08/10 11:21:19;;;;;;;13.60;9.68;;;;;;;;;;4943681;28;20055;-62
2021/08/10 11:24:08;;;;;;;15.57;10.57;;;;;;;;;;4972644;28;20057;-62
2021/08/10 11:26:54;;;;;;;13.57;11.35;;;;;;;;;;4971531;28;20236;-62
2021/08/10 11:29:42;;;;;;;14.43;10.00;;;;;;;;;;4972717;28;20053;-63
2021/08/10 11:32:35;;;;;;;12.88;10.63;;;;;;;;;;4964891;28;20049;-63
2021/08/10 11:35:40;;;;;;;13.00;8.98;;;;;;;;;;4950366;29;20054;-63
2021/08/10 11:38:25;;;;;;;14.43;10.68;;;;;;;;;;4954331;29;20050;-63
2021/08/10 11:41:11;;;;;;;13.95;9.30;;;;;;;;;;4955439;29;20178;-63
2021/08/10 11:44:00;;;;;;;14.75;10.10;;;;;;;;;;4955804;29;20049;-73
2021/08/10 11:46:46;;;;;;;9.73;7.53;;;;;;;;;;4955342;29;20050;-73
2021/08/10 11:49:31;;;;;;;8.82;6.90;;;;;;;;;;4954608;29;20066;-63
2021/08/10 11:52:17;;;;;;;9.88;6.30;;;;;;;;;;4955760;28;20051;-63
2021/08/10 11:55:02;;;;;;;11.35;6.70;;;;;;;;;;4959527;28;20135;-63
2021/08/10 11:57:57;;;;;;;9.68;6.18;;;;;;;;;;4955045;29;20051;-63
2021/08/10 12:00:45;;;;;;;8.15;4.85;;;;;;;;;;4953695;28;20058;-63
2021/08/10 12:03:30;;;;;;;5.97;3.92;;;;;;;;;;4955709;28;20054;-63
2021/08/10 12:06:15;;;;;;;7.65;3.58;;;;;;;;;;4955098;29;20126;-63
2021/08/10 12:09:07;;;;;;;3.85;2.25;;;;;;;;;;4953672;29;20043;-63
2021/08/10 12:11:54;;;;;;;2.53;1.70;;;;;;;;;;4955247;28;20050;-63
2021/08/10 12:14:41;;;;;;;2.28;1.65;;;;;;;;;;4955422;29;20162;-63
2021/08/10 12:17:26;;;;;;;2.38;1.73;;;;;;;;;;4954182;29;20498;-63
2021/08/10 12:20:14;;;;;;;3.28;2.28;;;;;;;;;;4955038;29;20051;-63
2021/08/10 12:23:00;;;;;;;2.33;1.92;;;;;;;;;;4956494;28;20568;-64
2021/08/10 12:25:45;;;;;;;3.58;2.10;;;;;;;;;;4953860;29;20039;-63
2021/08/10 12:28:31;;;;;;;4.45;2.00;;;;;;;;;;4954574;29;20525;-63
2021/08/10 12:31:16;;;;;;;2.40;1.70;;;;;;;;;;4955265;29;20130;-63
2021/08/10 12:34:02;;;;;;;2.63;1.63;;;;;;;;;;4953197;29;20058;-63
2021/08/10 12:36:53;;;;;;;4.45;2.10;;;;;;;;;;4952350;28;20047;-64
2021/08/10 12:39:38;;;;;;;2.65;1.90;;;;;;;;;;4955084;29;20186;-64
2021/08/10 12:42:23;;;;;;;3.22;1.92;;;;;;;;;;4953146;28;20094;-63
2021/08/10 12:45:09;;;;;;;3.05;1.85;;;;;;;;;;4953986;29;20426;-63
2021/08/10 12:47:55;;;;;;;2.90;2.03;;;;;;;;;;4953661;28;20051;-63
2021/08/10 12:50:40;;;;;;;3.22;2.00;;;;;;;;;;4951959;29;20073;-63
2021/08/10 12:53:26;;;;;;;2.55;2.10;;;;;;;;;;4952827;28;20502;-63
2021/08/10 12:56:11;;;;;;;4.20;2.15;;;;;;;;;;4954269;29;20053;-64
2021/08/10 12:58:56;;;;;;;3.05;2.05;;;;;;;;;;4953764;29;20047;-64
2021/08/10 13:01:45;;;;;;;3.15;1.85;;;;;;;;;;4952865;29;20050;-64
2021/08/10 13:04:30;;;;;;;3.63;2.08;;;;;;;;;;4953987;28;20114;-63
2021/08/10 13:07:16;;;;;;;3.15;2.03;;;;;;;;;;4953965;29;20047;-64
2021/08/10 13:10:01;;;;;;;2.75;1.80;;;;;;;;;;4946028;29;20047;-63
2021/08/10 13:12:59;;;;;;;4.38;2.30;;;;;;;;;;4945941;29;20051;-64
2021/08/10 13:15:45;;;;;;;4.13;2.00;;;;;;;;;;4616238;28;10000687;-64
2021/08/10 13:18:30;;;;;;;3.60;2.03;;;;;;;;;;4954979;28;20050;-64
2021/08/10 13:21:21;;;;;;;4.28;2.00;;;;;;;;;;4955318;28;20062;-62
2021/08/10 13:24:06;;;;;;;3.20;2.13;;;;;;;;;;4956110;28;20117;-62
2021/08/10 13:26:53;;;;;;;2.65;1.80;;;;;;;;;;4954309;28;20058;-62
2021/08/10 13:29:38;;;;;;;3.05;1.67;;;;;;;;;;4955091;28;20077;-62
2021/08/10 13:32:24;;;;;;;3.35;2.17;;;;;;;;;;4954744;28;20065;-62
2021/08/10 13:35:09;;;;;;;2.33;1.98;;;;;;;;;;4964097;28;20061;-62
2021/08/10 13:37:55;;;;;;;4.25;2.60;;;;;;;;;;4973498;28;20101;-62
2021/08/10 13:40:40;;;;;;;4.25;2.50;;;;;;;;;;4973902;28;20042;-62
2021/08/10 13:43:25;;;;;;;4.65;2.25;;;;;;;;;;4973185;28;20178;-62
2021/08/10 13:46:17;;;;;;;2.92;2.25;;;;;;;;;;4956530;28;20516;-62
2021/08/10 13:49:04;;;;;;;3.13;2.05;;;;;;;;;;4954523;28;20047;-62
2021/08/10 13:51:49;;;;;;;4.97;2.15;;;;;;;;;;4954235;28;20043;-62
2021/08/10 13:54:34;;;;;;;5.72;2.60;;;;;;;;;;4953798;28;20058;-62
2021/08/10 13:57:23;;;;;;;3.50;2.22;;;;;;;;;;4971969;28;20687;-62
2021/08/10 14:00:08;;;;;;;4.80;2.60;;;;;;;;;;4973868;28;20421;-62
2021/08/10 14:02:54;;;;;;;4.22;2.55;;;;;;;;;;4973694;28;20421;-62
2021/08/10 14:05:40;;;;;;;3.13;2.50;;;;;;;;;;4970829;28;20126;-62
2021/08/10 14:08:25;;;;;;;2.85;2.28;;;;;;;;;;4973367;28;20045;-62
2021/08/10 14:11:10;;;;;;;4.22;2.38;;;;;;;;;;4967444;28;20417;-62
2021/08/10 14:13:55;;;;;;;4.65;2.55;;;;;;;;;;4953590;28;20043;-62
2021/08/10 14:16:41;;;;;;;3.92;2.42;;;;;;;;;;4961683;28;20054;-62
2021/08/10 14:19:26;;;;;;;5.03;2.53;;;;;;;;;;4972303;28;20066;-62
2021/08/10 14:22:12;;;;;;;4.47;2.08;;;;;;;;;;4973390;28;20128;-62
2021/08/10 14:24:57;;;;;;;5.07;2.55;;;;;;;;;;4973210;28;20054;-62
2021/08/10 14:27:42;;;;;;;3.88;2.22;;;;;;;;;;4970584;28;20440;-62
2021/08/10 14:30:28;;;;;;;3.78;2.47;;;;;;;;;;4972898;28;20563;-62
2021/08/10 14:33:14;;;;;;;4.90;2.80;;;;;;;;;;4973335;28;20622;-62
2021/08/10 14:36:00;;;;;;;4.88;3.15;;;;;;;;;;4971949;28;20166;-62
2021/08/10 14:38:45;;;;;;;5.80;3.08;;;;;;;;;;4972635;28;20058;-62
2021/08/10 14:41:30;;;;;;;4.18;2.80;;;;;;;;;;4973403;28;20105;-62
2021/08/10 14:44:16;;;;;;;3.40;2.75;;;;;;;;;;4973155;28;20082;-62
2021/08/10 14:47:01;;;;;;;3.60;3.00;;;;;;;;;;4969866;28;20147;-62
2021/08/10 14:49:47;;;;;;;5.00;3.00;;;;;;;;;;4971842;28;20489;-62
2021/08/10 14:52:32;;;;;;;8.07;3.45;;;;;;;;;;4973266;28;20133;-62
2021/08/10 14:55:17;;;;;;;4.35;3.10;;;;;;;;;;4972956;28;20066;-62
2021/08/10 14:58:03;;;;;;;4.47;2.72;;;;;;;;;;4968957;28;20062;-62
2021/08/10 15:00:48;;;;;;;5.80;3.42;;;;;;;;;;4966200;28;20047;-62
2021/08/10 15:03:33;;;;;;;6.28;3.72;;;;;;;;;;4972395;28;20039;-62
2021/08/10 15:06:19;;;;;;;6.57;3.25;;;;;;;;;;4973156;28;20425;-62
2021/08/10 15:09:04;;;;;;;5.20;3.58;;;;;;;;;;4972949;28;20498;-62
2021/08/10 15:11:49;;;;;;;6.57;3.58;;;;;;;;;;4972650;28;20046;-62
2021/08/10 15:14:35;;;;;;;6.80;3.40;;;;;;;;;;4975968;28;20126;-62
2021/08/10 15:17:20;;;;;;;5.43;3.40;;;;;;;;;;4976926;28;20128;-62
2021/08/10 15:20:07;;;;;;;7.88;4.22;;;;;;;;;;4976705;28;20054;-62
2021/08/10 15:22:52;;;;;;;6.20;4.10;;;;;;;;;;4974854;28;20050;-62
2021/08/10 15:25:38;;;;;;;4.07;3.28;;;;;;;;;;4976544;28;20047;-62
2021/08/10 15:28:23;;;;;;;6.60;3.92;;;;;;;;;;4976559;28;20039;-62
2021/08/10 15:31:08;;;;;;;5.70;3.83;;;;;;;;;;4976529;28;20058;-62
2021/08/10 15:33:54;;;;;;;5.40;3.30;;;;;;;;;;4975739;28;20050;-63
2021/08/10 15:36:39;;;;;;;6.05;3.58;;;;;;;;;;4976383;28;20390;-62
2021/08/10 15:39:25;;;;;;;4.75;3.20;;;;;;;;;;4976416;28;20181;-62
2021/08/10 15:42:10;;;;;;;5.63;3.85;;;;;;;;;;4974309;28;20443;-63
2021/08/10 15:44:55;;;;;;;4.00;3.17;;;;;;;;;;4975386;28;20169;-63
2021/08/10 15:47:42;;;;;;;4.38;3.30;;;;;;;;;;4976197;28;20062;-62
2021/08/10 15:50:27;;;;;;;5.30;2.95;;;;;;;;;;4976491;28;20055;-63
2021/08/10 15:53:14;;;;;;;3.47;3.13;;;;;;;;;;4974093;28;20066;-63
2021/08/10 15:55:59;;;;;;;5.53;3.08;;;;;;;;;;4975665;28;20178;-62
2021/08/10 15:58:44;;;;;;;4.85;3.10;;;;;;;;;;5017712;23;20517;-63
2021/08/10 16:01:30;;;;;;;6.40;3.55;;;;;;;;;;4980725;28;20512;-64
2021/08/10 16:04:15;;;;;;;4.07;2.63;;;;;;;;;;4990467;28;20114;-64
2021/08/10 16:07:00;;;;;;;4.78;3.20;;;;;;;;;;4998326;28;20539;-64
2021/08/10 16:09:46;;;;;;;4.57;3.45;;;;;;;;;;4997953;28;20050;-64
2021/08/10 16:12:31;;;;;;;6.53;3.30;;;;;;;;;;4997824;28;20049;-64
2021/08/10 16:15:16;;;;;;;4.88;3.22;;;;;;;;;;4995747;28;20049;-64
2021/08/10 16:18:02;;;;;;;5.10;2.95;;;;;;;;;;4996661;28;20054;-65
2021/08/10 16:20:47;;;;;;;4.97;3.17;;;;;;;;;;4974166;28;20061;-64
2021/08/10 16:23:32;;;;;;;6.88;3.42;;;;;;;;;;4973293;28;20233;-64